sensor_id;sensor_type;location;lat;lon;timestamp;temperature;humidity
506;DHT22;551;48.524;9.056;2023-09-08T00:00:41;17.80;1.00
506;DHT22;551;48.524;9.056;2023-09-08T00:03:06;17.70;1.00
506;DHT22;551;48.524;9.056;2023-09-08T00:05:32;17.60;1.00
506;DHT22;551;48.524;9.056;2023-09-08T00:07:57;17.60;1.00
506;DHT22;551;48.524;9.056;2023-09-08T00:10:24;17.60;1.00
506;DHT22;551;48.524;9.056;2023-09-08T00:12:49;17.60;1.00
506;DHT22;551;48.524;9.056;2023-09-08T00:15:14;17.50;1.00
506;DHT22;551;48.524;9.056;2023-09-08T00:17:40;17.50;1.00
506;DHT22;551;48.524;9.056;2023-09-08T00:20:07;17.50;1.00
506;DHT22;551;48.524;9.056;2023-09-08T00:22:36;17.40;1.00
506;DHT22;551;48.524;9.056;2023-09-08T00:25:02;17.40;1.00
506;DHT22;551;48.524;9.056;2023-09-08T00:27:29;17.40;1.00
506;DHT22;551;48.524;9.056;2023-09-08T00:29:55;17.40;1.00
506;DHT22;551;48.524;9.056;2023-09-08T00:32:21;17.30;1.00
506;DHT22;551;48.524;9.056;2023-09-08T00:34:46;17.30;1.00
506;DHT22;551;48.524;9.056;2023-09-08T00:37:12;17.30;1.00
506;DHT22;551;48.524;9.056;2023-09-08T00:39:38;17.20;1.00
506;DHT22;551;48.524;9.056;2023-09-08T00:42:04;17.30;1.00
506;DHT22;551;48.524;9.056;2023-09-08T00:44:29;17.20;1.00
506;DHT22;551;48.524;9.056;2023-09-08T00:46:55;17.20;1.00
506;DHT22;551;48.524;9.056;2023-09-08T00:49:21;17.20;1.00
506;DHT22;551;48.524;9.056;2023-09-08T00:51:47;17.10;1.00
506;DHT22;551;48.524;9.056;2023-09-08T00:54:14;17.10;1.00
506;DHT22;551;48.524;9.056;2023-09-08T00:56:40;17.10;1.00
506;DHT22;551;48.524;9.056;2023-09-08T00:59:06;17.00;1.00
506;DHT22;551;48.524;9.056;2023-09-08T01:01:32;17.00;1.00
506;DHT22;551;48.524;9.056;2023-09-08T01:04:00;17.00;1.00
506;DHT22;551;48.524;9.056;2023-09-08T01:06:26;16.90;1.00
506;DHT22;551;48.524;9.056;2023-09-08T01:08:53;16.90;1.00
506;DHT22;551;48.524;9.056;2023-09-08T01:11:19;16.80;1.00
506;DHT22;551;48.524;9.056;2023-09-08T01:13:45;16.80;1.00
506;DHT22;551;48.524;9.056;2023-09-08T01:16:10;16.80;1.00
506;DHT22;551;48.524;9.056;2023-09-08T01:18:36;16.80;1.00
506;DHT22;551;48.524;9.056;2023-09-08T01:26:26;16.70;1.00
506;DHT22;551;48.524;9.056;2023-09-08T01:28:53;16.60;1.00
506;DHT22;551;48.524;9.056;2023-09-08T01:31:20;16.60;1.00
506;DHT22;551;48.524;9.056;2023-09-08T01:33:45;16.70;1.00
506;DHT22;551;48.524;9.056;2023-09-08T01:36:11;16.60;1.00
506;DHT22;551;48.524;9.056;2023-09-08T01:38:37;16.60;1.00
506;DHT22;551;48.524;9.056;2023-09-08T01:41:03;16.60;1.00
506;DHT22;551;48.524;9.056;2023-09-08T01:43:28;16.50;1.00
506;DHT22;551;48.524;9.056;2023-09-08T01:45:54;16.50;1.00
506;DHT22;551;48.524;9.056;2023-09-08T01:48:19;16.50;1.00
506;DHT22;551;48.524;9.056;2023-09-08T01:50:46;16.50;1.00
506;DHT22;551;48.524;9.056;2023-09-08T01:53:12;16.40;1.00
506;DHT22;551;48.524;9.056;2023-09-08T01:55:37;16.40;1.00
506;DHT22;551;48.524;9.056;2023-09-08T01:58:03;16.40;1.00
506;DHT22;551;48.524;9.056;2023-09-08T02:00:28;16.30;1.00
506;DHT22;551;48.524;9.056;2023-09-08T02:02:54;16.30;1.00
506;DHT22;551;48.524;9.056;2023-09-08T02:05:19;16.30;1.00
506;DHT22;551;48.524;9.056;2023-09-08T02:07:45;16.30;1.00
506;DHT22;551;48.524;9.056;2023-09-08T02:10:10;16.30;1.00
506;DHT22;551;48.524;9.056;2023-09-08T02:12:36;16.30;1.00
506;DHT22;551;48.524;9.056;2023-09-08T02:15:02;16.20;1.00
506;DHT22;551;48.524;9.056;2023-09-08T02:17:29;16.20;1.00
506;DHT22;551;48.524;9.056;2023-09-08T02:19:54;16.20;1.00
506;DHT22;551;48.524;9.056;2023-09-08T02:22:20;16.20;1.00
506;DHT22;551;48.524;9.056;2023-09-08T02:24:45;16.10;1.00
506;DHT22;551;48.524;9.056;2023-09-08T02:27:11;16.10;1.00
506;DHT22;551;48.524;9.056;2023-09-08T02:29:37;16.10;1.00
506;DHT22;551;48.524;9.056;2023-09-08T02:32:02;16.00;1.00
506;DHT22;551;48.524;9.056;2023-09-08T02:34:28;16.00;1.00
506;DHT22;551;48.524;9.056;2023-09-08T02:36:53;16.00;1.00
506;DHT22;551;48.524;9.056;2023-09-08T02:39:19;16.00;1.00
506;DHT22;551;48.524;9.056;2023-09-08T02:41:44;16.00;1.00
506;DHT22;551;48.524;9.056;2023-09-08T02:44:10;16.00;1.00
506;DHT22;551;48.524;9.056;2023-09-08T02:46:35;16.00;1.00
506;DHT22;551;48.524;9.056;2023-09-08T02:49:01;16.00;1.00
506;DHT22;551;48.524;9.056;2023-09-08T02:51:26;15.90;1.00
506;DHT22;551;48.524;9.056;2023-09-08T02:53:52;15.90;1.00
506;DHT22;551;48.524;9.056;2023-09-08T02:56:17;15.90;1.00
506;DHT22;551;48.524;9.056;2023-09-08T02:58:43;15.80;1.00
506;DHT22;551;48.524;9.056;2023-09-08T03:01:13;15.80;1.00
506;DHT22;551;48.524;9.056;2023-09-08T03:03:42;15.80;1.00
506;DHT22;551;48.524;9.056;2023-09-08T03:06:11;15.80;1.00
506;DHT22;551;48.524;9.056;2023-09-08T03:08:37;15.80;1.00
506;DHT22;551;48.524;9.056;2023-09-08T03:11:03;15.80;1.00
506;DHT22;551;48.524;9.056;2023-09-08T03:13:31;15.80;1.00
506;DHT22;551;48.524;9.056;2023-09-08T03:15:56;15.80;1.00
506;DHT22;551;48.524;9.056;2023-09-08T03:18:22;15.80;1.00
506;DHT22;551;48.524;9.056;2023-09-08T03:20:49;15.80;1.00
506;DHT22;551;48.524;9.056;2023-09-08T03:23:15;15.80;1.00
506;DHT22;551;48.524;9.056;2023-09-08T03:25:41;15.70;1.00
506;DHT22;551;48.524;9.056;2023-09-08T03:28:07;15.70;1.00
506;DHT22;551;48.524;9.056;2023-09-08T03:30:32;15.70;1.00
506;DHT22;551;48.524;9.056;2023-09-08T03:32:58;15.60;1.00
506;DHT22;551;48.524;9.056;2023-09-08T03:35:23;15.60;1.00
506;DHT22;551;48.524;9.056;2023-09-08T03:37:49;15.60;1.00
506;DHT22;551;48.524;9.056;2023-09-08T03:40:14;15.50;1.00
506;DHT22;551;48.524;9.056;2023-09-08T03:42:40;15.50;1.00
506;DHT22;551;48.524;9.056;2023-09-08T03:45:08;15.50;1.00
506;DHT22;551;48.524;9.056;2023-09-08T03:47:33;15.50;1.00
506;DHT22;551;48.524;9.056;2023-09-08T03:49:59;15.40;1.00
506;DHT22;551;48.524;9.056;2023-09-08T03:52:24;15.40;1.00
506;DHT22;551;48.524;9.056;2023-09-08T03:54:50;15.40;1.00
506;DHT22;551;48.524;9.056;2023-09-08T03:57:16;15.30;1.00
506;DHT22;551;48.524;9.056;2023-09-08T03:59:41;15.30;1.00
506;DHT22;551;48.524;9.056;2023-09-08T04:02:07;15.30;1.00
506;DHT22;551;48.524;9.056;2023-09-08T04:04:32;15.30;1.00
506;DHT22;551;48.524;9.056;2023-09-08T04:06:58;15.30;1.00
506;DHT22;551;48.524;9.056;2023-09-08T04:09:23;15.30;1.00
506;DHT22;551;48.524;9.056;2023-09-08T04:11:49;15.30;1.00
506;DHT22;551;48.524;9.056;2023-09-08T04:14:14;15.20;1.00
506;DHT22;551;48.524;9.056;2023-09-08T04:16:40;15.20;1.00
506;DHT22;551;48.524;9.056;2023-09-08T04:19:05;15.20;1.00
506;DHT22;551;48.524;9.056;2023-09-08T04:21:30;15.20;1.00
506;DHT22;551;48.524;9.056;2023-09-08T04:23:56;15.20;1.00
506;DHT22;551;48.524;9.056;2023-09-08T04:26:21;15.10;1.00
506;DHT22;551;48.524;9.056;2023-09-08T04:28:47;15.10;1.00
506;DHT22;551;48.524;9.056;2023-09-08T04:31:12;15.10;1.00
506;DHT22;551;48.524;9.056;2023-09-08T04:33:38;15.00;1.00
506;DHT22;551;48.524;9.056;2023-09-08T04:36:04;15.00;1.00
506;DHT22;551;48.524;9.056;2023-09-08T04:38:30;15.00;1.00
506;DHT22;551;48.524;9.056;2023-09-08T04:40:55;14.90;1.00
506;DHT22;551;48.524;9.056;2023-09-08T04:43:20;14.90;1.00
506;DHT22;551;48.524;9.056;2023-09-08T04:45:46;14.90;1.00
506;DHT22;551;48.524;9.056;2023-09-08T04:48:12;14.80;1.00
506;DHT22;551;48.524;9.056;2023-09-08T04:50:37;14.80;1.00
506;DHT22;551;48.524;9.056;2023-09-08T04:53:03;14.80;1.00
506;DHT22;551;48.524;9.056;2023-09-08T04:55:29;14.80;1.00
506;DHT22;551;48.524;9.056;2023-09-08T04:57:55;14.80;1.00
506;DHT22;551;48.524;9.056;2023-09-08T05:00:20;14.80;1.00
506;DHT22;551;48.524;9.056;2023-09-08T05:02:46;14.80;1.00
506;DHT22;551;48.524;9.056;2023-09-08T05:05:11;14.80;1.00
506;DHT22;551;48.524;9.056;2023-09-08T05:07:37;14.90;1.00
506;DHT22;551;48.524;9.056;2023-09-08T05:10:02;14.90;1.00
506;DHT22;551;48.524;9.056;2023-09-08T05:12:28;14.90;1.00
506;DHT22;551;48.524;9.056;2023-09-08T05:14:53;15.00;1.00
506;DHT22;551;48.524;9.056;2023-09-08T05:17:23;15.10;1.00
506;DHT22;551;48.524;9.056;2023-09-08T05:19:49;15.20;1.00
506;DHT22;551;48.524;9.056;2023-09-08T05:22:14;15.20;1.00
506;DHT22;551;48.524;9.056;2023-09-08T05:24:40;15.30;1.00
506;DHT22;551;48.524;9.056;2023-09-08T05:27:05;15.30;1.00
506;DHT22;551;48.524;9.056;2023-09-08T05:29:31;15.40;1.00
506;DHT22;551;48.524;9.056;2023-09-08T05:31:56;15.50;1.00
506;DHT22;551;48.524;9.056;2023-09-08T05:34:22;15.50;1.00
506;DHT22;551;48.524;9.056;2023-09-08T05:36:47;15.60;1.00
506;DHT22;551;48.524;9.056;2023-09-08T05:39:15;15.60;1.00
506;DHT22;551;48.524;9.056;2023-09-08T05:41:40;15.60;1.00
506;DHT22;551;48.524;9.056;2023-09-08T05:44:06;15.70;1.00
506;DHT22;551;48.524;9.056;2023-09-08T05:46:32;15.80;1.00
506;DHT22;551;48.524;9.056;2023-09-08T05:48:57;15.90;1.00
506;DHT22;551;48.524;9.056;2023-09-08T05:51:23;16.00;1.00
506;DHT22;551;48.524;9.056;2023-09-08T05:53:49;16.10;1.00
506;DHT22;551;48.524;9.056;2023-09-08T05:56:14;16.40;1.00
506;DHT22;551;48.524;9.056;2023-09-08T05:58:40;16.90;1.00
506;DHT22;551;48.524;9.056;2023-09-08T06:01:06;17.30;1.00
506;DHT22;551;48.524;9.056;2023-09-08T06:03:32;17.70;1.00
506;DHT22;551;48.524;9.056;2023-09-08T06:05:58;17.90;1.00
506;DHT22;551;48.524;9.056;2023-09-08T06:08:23;18.10;1.00
506;DHT22;551;48.524;9.056;2023-09-08T06:10:49;18.40;1.00
506;DHT22;551;48.524;9.056;2023-09-08T06:13:15;18.60;1.00
506;DHT22;551;48.524;9.056;2023-09-08T06:15:41;18.60;1.00
506;DHT22;551;48.524;9.056;2023-09-08T06:18:06;18.70;1.00
506;DHT22;551;48.524;9.056;2023-09-08T06:20:32;18.80;1.00
506;DHT22;551;48.524;9.056;2023-09-08T06:22:57;19.20;1.00
506;DHT22;551;48.524;9.056;2023-09-08T06:25:23;19.80;1.00
506;DHT22;551;48.524;9.056;2023-09-08T06:27:48;20.30;1.00
506;DHT22;551;48.524;9.056;2023-09-08T06:30:14;21.10;1.00
506;DHT22;551;48.524;9.056;2023-09-08T06:32:41;22.50;1.00
506;DHT22;551;48.524;9.056;2023-09-08T06:35:07;23.70;1.00
506;DHT22;551;48.524;9.056;2023-09-08T06:37:36;25.40;1.00
506;DHT22;551;48.524;9.056;2023-09-08T06:40:03;26.70;1.00
506;DHT22;551;48.524;9.056;2023-09-08T06:42:28;27.30;1.00
506;DHT22;551;48.524;9.056;2023-09-08T06:44:54;27.60;1.00
506;DHT22;551;48.524;9.056;2023-09-08T06:47:19;27.20;1.00
506;DHT22;551;48.524;9.056;2023-09-08T06:49:45;26.80;1.00
506;DHT22;551;48.524;9.056;2023-09-08T06:52:10;26.30;1.00
506;DHT22;551;48.524;9.056;2023-09-08T06:54:36;25.80;1.00
506;DHT22;551;48.524;9.056;2023-09-08T06:57:01;25.10;1.00
506;DHT22;551;48.524;9.056;2023-09-08T06:59:27;24.80;1.00
506;DHT22;551;48.524;9.056;2023-09-08T07:01:52;25.00;1.00
506;DHT22;551;48.524;9.056;2023-09-08T07:04:18;25.80;1.00
506;DHT22;551;48.524;9.056;2023-09-08T07:06:43;27.30;1.00
506;DHT22;551;48.524;9.056;2023-09-08T07:09:11;28.70;1.00
506;DHT22;551;48.524;9.056;2023-09-08T07:11:36;30.30;1.00
506;DHT22;551;48.524;9.056;2023-09-08T07:14:02;31.70;1.00
506;DHT22;551;48.524;9.056;2023-09-08T07:16:28;33.20;1.00
506;DHT22;551;48.524;9.056;2023-09-08T07:18:53;34.20;1.00
506;DHT22;551;48.524;9.056;2023-09-08T07:21:18;35.60;1.00
506;DHT22;551;48.524;9.056;2023-09-08T07:23:44;36.20;1.00
506;DHT22;551;48.524;9.056;2023-09-08T07:26:09;37.00;1.00
506;DHT22;551;48.524;9.056;2023-09-08T07:28:35;37.60;1.00
506;DHT22;551;48.524;9.056;2023-09-08T07:31:04;38.40;1.00
506;DHT22;551;48.524;9.056;2023-09-08T07:33:30;38.40;1.00
506;DHT22;551;48.524;9.056;2023-09-08T07:35:56;38.80;1.00
506;DHT22;551;48.524;9.056;2023-09-08T07:38:22;39.10;1.00
506;DHT22;551;48.524;9.056;2023-09-08T07:40:47;39.60;1.00
506;DHT22;551;48.524;9.056;2023-09-08T07:43:13;39.90;1.00
506;DHT22;551;48.524;9.056;2023-09-08T07:45:38;40.30;1.00
506;DHT22;551;48.524;9.056;2023-09-08T07:48:06;40.40;1.00
506;DHT22;551;48.524;9.056;2023-09-08T07:50:31;40.60;1.00
506;DHT22;551;48.524;9.056;2023-09-08T07:52:57;40.60;1.00
506;DHT22;551;48.524;9.056;2023-09-08T07:55:23;40.90;1.00
506;DHT22;551;48.524;9.056;2023-09-08T07:57:52;41.10;1.00
506;DHT22;551;48.524;9.056;2023-09-08T08:00:19;41.40;1.00
506;DHT22;551;48.524;9.056;2023-09-08T08:02:50;41.20;1.00
506;DHT22;551;48.524;9.056;2023-09-08T08:05:16;41.50;1.00
506;DHT22;551;48.524;9.056;2023-09-08T08:07:43;41.30;1.00
506;DHT22;551;48.524;9.056;2023-09-08T08:10:10;41.70;1.00
506;DHT22;551;48.524;9.056;2023-09-08T08:12:36;41.20;1.00
506;DHT22;551;48.524;9.056;2023-09-08T08:15:02;40.90;1.00
506;DHT22;551;48.524;9.056;2023-09-08T08:17:28;40.60;1.00
506;DHT22;551;48.524;9.056;2023-09-08T08:19:55;40.60;1.00
506;DHT22;551;48.524;9.056;2023-09-08T08:22:21;40.90;1.00
506;DHT22;551;48.524;9.056;2023-09-08T08:24:46;40.40;1.00
506;DHT22;551;48.524;9.056;2023-09-08T08:27:12;40.10;1.00
506;DHT22;551;48.524;9.056;2023-09-08T08:29:39;40.70;1.00
506;DHT22;551;48.524;9.056;2023-09-08T08:32:05;40.90;1.00
506;DHT22;551;48.524;9.056;2023-09-08T08:34:30;42.00;1.00
506;DHT22;551;48.524;9.056;2023-09-08T08:36:56;42.60;1.00
506;DHT22;551;48.524;9.056;2023-09-08T08:39:21;42.40;1.00
506;DHT22;551;48.524;9.056;2023-09-08T08:41:47;42.10;1.00
506;DHT22;551;48.524;9.056;2023-09-08T08:44:13;42.00;1.00
506;DHT22;551;48.524;9.056;2023-09-08T08:46:41;41.80;1.00
506;DHT22;551;48.524;9.056;2023-09-08T08:49:08;41.80;1.00
506;DHT22;551;48.524;9.056;2023-09-08T08:51:35;41.70;1.00
506;DHT22;551;48.524;9.056;2023-09-08T08:54:01;42.10;1.00
506;DHT22;551;48.524;9.056;2023-09-08T08:56:31;42.10;1.00
506;DHT22;551;48.524;9.056;2023-09-08T08:58:57;41.50;1.00
506;DHT22;551;48.524;9.056;2023-09-08T09:01:24;41.40;1.00
506;DHT22;551;48.524;9.056;2023-09-08T09:03:51;41.30;1.00
506;DHT22;551;48.524;9.056;2023-09-08T09:06:17;42.10;1.00
506;DHT22;551;48.524;9.056;2023-09-08T09:08:44;42.70;1.00
506;DHT22;551;48.524;9.056;2023-09-08T09:11:11;43.40;1.00
506;DHT22;551;48.524;9.056;2023-09-08T09:13:37;43.50;1.00
506;DHT22;551;48.524;9.056;2023-09-08T09:16:03;44.10;1.00
506;DHT22;551;48.524;9.056;2023-09-08T09:18:30;44.90;1.00
506;DHT22;551;48.524;9.056;2023-09-08T09:20:59;45.20;1.00
506;DHT22;551;48.524;9.056;2023-09-08T09:25:54;46.20;1.00
506;DHT22;551;48.524;9.056;2023-09-08T09:28:19;46.90;1.00
506;DHT22;551;48.524;9.056;2023-09-08T09:30:50;46.80;1.00
506;DHT22;551;48.524;9.056;2023-09-08T09:33:16;46.60;1.00
506;DHT22;551;48.524;9.056;2023-09-08T09:35:47;46.40;1.00
506;DHT22;551;48.524;9.056;2023-09-08T09:38:13;47.80;1.00
506;DHT22;551;48.524;9.056;2023-09-08T09:40:40;48.10;1.00
506;DHT22;551;48.524;9.056;2023-09-08T09:43:06;47.90;1.00
506;DHT22;551;48.524;9.056;2023-09-08T09:45:33;48.40;1.00
506;DHT22;551;48.524;9.056;2023-09-08T09:47:59;47.80;1.00
506;DHT22;551;48.524;9.056;2023-09-08T09:52:58;47.00;1.00
506;DHT22;551;48.524;9.056;2023-09-08T09:55:28;46.60;1.00
506;DHT22;551;48.524;9.056;2023-09-08T09:57:58;46.80;1.00
506;DHT22;551;48.524;9.056;2023-09-08T10:00:29;47.00;1.00
506;DHT22;551;48.524;9.056;2023-09-08T10:02:56;47.60;1.00
506;DHT22;551;48.524;9.056;2023-09-08T10:05:25;48.50;1.00
506;DHT22;551;48.524;9.056;2023-09-08T10:07:51;48.20;1.00
506;DHT22;551;48.524;9.056;2023-09-08T10:10:18;48.90;1.00
506;DHT22;551;48.524;9.056;2023-09-08T10:12:45;48.90;1.00
506;DHT22;551;48.524;9.056;2023-09-08T10:15:12;48.70;1.00
506;DHT22;551;48.524;9.056;2023-09-08T10:17:40;48.20;1.00
506;DHT22;551;48.524;9.056;2023-09-08T10:20:08;48.60;1.00
506;DHT22;551;48.524;9.056;2023-09-08T10:22:38;48.30;1.00
506;DHT22;551;48.524;9.056;2023-09-08T10:25:08;48.50;1.00
506;DHT22;551;48.524;9.056;2023-09-08T10:27:34;49.20;1.00
506;DHT22;551;48.524;9.056;2023-09-08T10:30:04;48.90;1.00
506;DHT22;551;48.524;9.056;2023-09-08T10:32:33;49.00;1.00
506;DHT22;551;48.524;9.056;2023-09-08T10:35:00;48.40;1.00
506;DHT22;551;48.524;9.056;2023-09-08T10:37:26;48.50;1.00
506;DHT22;551;48.524;9.056;2023-09-08T10:40:23;48.20;1.00
506;DHT22;551;48.524;9.056;2023-09-08T10:42:49;48.00;1.00
506;DHT22;551;48.524;9.056;2023-09-08T10:45:30;47.90;1.00
506;DHT22;551;48.524;9.056;2023-09-08T10:47:56;47.70;1.00
506;DHT22;551;48.524;9.056;2023-09-08T10:50:34;47.60;1.00
506;DHT22;551;48.524;9.056;2023-09-08T10:53:17;48.10;1.00
506;DHT22;551;48.524;9.056;2023-09-08T10:55:47;47.60;1.00
506;DHT22;551;48.524;9.056;2023-09-08T10:58:32;47.40;1.00
506;DHT22;551;48.524;9.056;2023-09-08T11:01:00;47.80;1.00
506;DHT22;551;48.524;9.056;2023-09-08T11:03:46;47.60;1.00
506;DHT22;551;48.524;9.056;2023-09-08T11:06:18;46.90;1.00
506;DHT22;551;48.524;9.056;2023-09-08T11:08:45;46.90;1.00
506;DHT22;551;48.524;9.056;2023-09-08T11:11:11;47.30;1.00
506;DHT22;551;48.524;9.056;2023-09-08T11:13:38;47.70;1.00
506;DHT22;551;48.524;9.056;2023-09-08T11:16:05;47.60;1.00
506;DHT22;551;48.524;9.056;2023-09-08T11:18:32;47.40;1.00
506;DHT22;551;48.524;9.056;2023-09-08T11:21:03;47.20;1.00
506;DHT22;551;48.524;9.056;2023-09-08T11:23:29;47.00;1.00
506;DHT22;551;48.524;9.056;2023-09-08T11:25:55;46.70;1.00
506;DHT22;551;48.524;9.056;2023-09-08T11:28:24;46.70;1.00
506;DHT22;551;48.524;9.056;2023-09-08T11:30:50;46.90;1.00
506;DHT22;551;48.524;9.056;2023-09-08T11:33:17;46.90;1.00
506;DHT22;551;48.524;9.056;2023-09-08T11:35:45;47.30;1.00
506;DHT22;551;48.524;9.056;2023-09-08T11:38:11;47.10;1.00
506;DHT22;551;48.524;9.056;2023-09-08T11:40:37;47.50;1.00
506;DHT22;551;48.524;9.056;2023-09-08T11:43:03;47.60;1.00
506;DHT22;551;48.524;9.056;2023-09-08T11:45:30;47.80;1.00
506;DHT22;551;48.524;9.056;2023-09-08T11:47:56;48.10;1.00
506;DHT22;551;48.524;9.056;2023-09-08T11:50:23;48.10;1.00
506;DHT22;551;48.524;9.056;2023-09-08T11:52:50;48.20;1.00
506;DHT22;551;48.524;9.056;2023-09-08T11:55:17;47.60;1.00
506;DHT22;551;48.524;9.056;2023-09-08T11:57:45;47.80;1.00
506;DHT22;551;48.524;9.056;2023-09-08T12:00:12;48.10;1.00
506;DHT22;551;48.524;9.056;2023-09-08T12:02:42;47.80;1.00
506;DHT22;551;48.524;9.056;2023-09-08T12:07:46;47.30;1.00
506;DHT22;551;48.524;9.056;2023-09-08T12:10:12;47.80;1.00
506;DHT22;551;48.524;9.056;2023-09-08T12:12:49;47.50;1.00
506;DHT22;551;48.524;9.056;2023-09-08T12:15:35;47.40;1.00
506;DHT22;551;48.524;9.056;2023-09-08T12:18:02;47.00;1.00
506;DHT22;551;48.524;9.056;2023-09-08T12:20:29;46.80;1.00
506;DHT22;551;48.524;9.056;2023-09-08T12:22:56;46.90;1.00
506;DHT22;551;48.524;9.056;2023-09-08T12:25:22;46.40;1.00
506;DHT22;551;48.524;9.056;2023-09-08T12:27:50;47.00;1.00
506;DHT22;551;48.524;9.056;2023-09-08T12:30:20;47.10;1.00
506;DHT22;551;48.524;9.056;2023-09-08T12:32:48;47.20;1.00
506;DHT22;551;48.524;9.056;2023-09-08T12:35:20;47.40;1.00
506;DHT22;551;48.524;9.056;2023-09-08T12:38:00;47.50;1.00
506;DHT22;551;48.524;9.056;2023-09-08T12:40:30;47.50;1.00
506;DHT22;551;48.524;9.056;2023-09-08T12:42:56;47.60;1.00
506;DHT22;551;48.524;9.056;2023-09-08T12:45:25;47.00;1.00
506;DHT22;551;48.524;9.056;2023-09-08T12:47:50;47.30;1.00
506;DHT22;551;48.524;9.056;2023-09-08T12:50:16;47.20;1.00
506;DHT22;551;48.524;9.056;2023-09-08T12:52:42;47.10;1.00
506;DHT22;551;48.524;9.056;2023-09-08T12:55:07;46.70;1.00
506;DHT22;551;48.524;9.056;2023-09-08T12:57:34;46.40;1.00
506;DHT22;551;48.524;9.056;2023-09-08T12:59:59;46.40;1.00
506;DHT22;551;48.524;9.056;2023-09-08T13:02:25;46.30;1.00
506;DHT22;551;48.524;9.056;2023-09-08T13:04:51;46.30;1.00
506;DHT22;551;48.524;9.056;2023-09-08T13:07:17;46.20;1.00
506;DHT22;551;48.524;9.056;2023-09-08T13:09:43;46.20;1.00
506;DHT22;551;48.524;9.056;2023-09-08T13:12:09;46.20;1.00
506;DHT22;551;48.524;9.056;2023-09-08T13:14:35;46.10;1.00
506;DHT22;551;48.524;9.056;2023-09-08T13:17:02;45.80;1.00
506;DHT22;551;48.524;9.056;2023-09-08T13:19:27;45.70;1.00
506;DHT22;551;48.524;9.056;2023-09-08T13:21:53;44.90;1.00
506;DHT22;551;48.524;9.056;2023-09-08T13:24:18;44.50;1.00
506;DHT22;551;48.524;9.056;2023-09-08T13:26:46;44.50;1.00
506;DHT22;551;48.524;9.056;2023-09-08T13:29:11;44.20;1.00
506;DHT22;551;48.524;9.056;2023-09-08T13:31:37;43.60;1.00
506;DHT22;551;48.524;9.056;2023-09-08T13:34:02;42.90;1.00
506;DHT22;551;48.524;9.056;2023-09-08T13:36:28;41.80;1.00
506;DHT22;551;48.524;9.056;2023-09-08T13:38:53;40.40;1.00
506;DHT22;551;48.524;9.056;2023-09-08T13:41:19;39.20;1.00
506;DHT22;551;48.524;9.056;2023-09-08T13:43:44;38.20;1.00
506;DHT22;551;48.524;9.056;2023-09-08T13:46:09;37.20;1.00
506;DHT22;551;48.524;9.056;2023-09-08T13:48:35;36.80;1.00
506;DHT22;551;48.524;9.056;2023-09-08T13:51:02;36.30;1.00
506;DHT22;551;48.524;9.056;2023-09-08T13:53:28;35.90;1.00
506;DHT22;551;48.524;9.056;2023-09-08T13:55:54;35.50;1.00
506;DHT22;551;48.524;9.056;2023-09-08T13:58:20;35.10;1.00
506;DHT22;551;48.524;9.056;2023-09-08T14:00:45;34.70;1.00
506;DHT22;551;48.524;9.056;2023-09-08T14:03:14;34.40;1.00
506;DHT22;551;48.524;9.056;2023-09-08T14:05:40;34.00;1.00
506;DHT22;551;48.524;9.056;2023-09-08T14:08:05;33.90;1.00
506;DHT22;551;48.524;9.056;2023-09-08T14:10:31;33.70;1.00
506;DHT22;551;48.524;9.056;2023-09-08T14:12:56;33.50;1.00
506;DHT22;551;48.524;9.056;2023-09-08T14:15:22;33.40;1.00
506;DHT22;551;48.524;9.056;2023-09-08T14:17:47;33.40;1.00
506;DHT22;551;48.524;9.056;2023-09-08T14:20:13;33.20;1.00
506;DHT22;551;48.524;9.056;2023-09-08T14:22:39;33.20;1.00
506;DHT22;551;48.524;9.056;2023-09-08T14:25:05;33.10;1.00
506;DHT22;551;48.524;9.056;2023-09-08T14:27:30;33.10;1.00
506;DHT22;551;48.524;9.056;2023-09-08T14:29:56;33.00;1.00
506;DHT22;551;48.524;9.056;2023-09-08T14:32:21;33.00;1.00
506;DHT22;551;48.524;9.056;2023-09-08T14:34:48;33.00;1.00
506;DHT22;551;48.524;9.056;2023-09-08T14:37:14;33.00;1.00
506;DHT22;551;48.524;9.056;2023-09-08T14:39:40;32.90;1.00
506;DHT22;551;48.524;9.056;2023-09-08T14:42:05;32.90;1.00
506;DHT22;551;48.524;9.056;2023-09-08T14:44:31;33.00;1.00
506;DHT22;551;48.524;9.056;2023-09-08T14:46:56;32.90;1.00
506;DHT22;551;48.524;9.056;2023-09-08T14:49:22;32.80;1.00
506;DHT22;551;48.524;9.056;2023-09-08T14:51:47;32.80;1.00
506;DHT22;551;48.524;9.056;2023-09-08T14:54:13;32.70;1.00
506;DHT22;551;48.524;9.056;2023-09-08T14:56:38;32.70;1.00
506;DHT22;551;48.524;9.056;2023-09-08T14:59:04;32.70;1.00
506;DHT22;551;48.524;9.056;2023-09-08T15:01:29;32.60;1.00
506;DHT22;551;48.524;9.056;2023-09-08T15:03:55;32.50;1.00
506;DHT22;551;48.524;9.056;2023-09-08T15:06:21;32.40;1.00
506;DHT22;551;48.524;9.056;2023-09-08T15:08:46;32.30;1.00
506;DHT22;551;48.524;9.056;2023-09-08T15:11:13;32.30;1.00
506;DHT22;551;48.524;9.056;2023-09-08T15:13:39;32.30;1.00
506;DHT22;551;48.524;9.056;2023-09-08T15:16:04;32.20;1.00
506;DHT22;551;48.524;9.056;2023-09-08T15:18:30;32.20;1.00
506;DHT22;551;48.524;9.056;2023-09-08T15:20:56;32.20;1.00
506;DHT22;551;48.524;9.056;2023-09-08T15:23:22;32.20;1.00
506;DHT22;551;48.524;9.056;2023-09-08T15:25:55;32.10;1.00
506;DHT22;551;48.524;9.056;2023-09-08T15:28:21;32.10;1.00
506;DHT22;551;48.524;9.056;2023-09-08T15:30:51;32.10;1.00
506;DHT22;551;48.524;9.056;2023-09-08T15:33:18;32.00;1.00
506;DHT22;551;48.524;9.056;2023-09-08T15:35:45;31.90;1.00
506;DHT22;551;48.524;9.056;2023-09-08T15:38:11;31.80;1.00
506;DHT22;551;48.524;9.056;2023-09-08T15:43:31;31.70;1.00
506;DHT22;551;48.524;9.056;2023-09-08T15:45:57;31.60;1.00
506;DHT22;551;48.524;9.056;2023-09-08T15:48:22;31.50;1.00
506;DHT22;551;48.524;9.056;2023-09-08T15:50:48;31.40;1.00
506;DHT22;551;48.524;9.056;2023-09-08T15:53:13;31.40;1.00
506;DHT22;551;48.524;9.056;2023-09-08T15:55:39;31.40;1.00
506;DHT22;551;48.524;9.056;2023-09-08T15:58:04;31.30;1.00
506;DHT22;551;48.524;9.056;2023-09-08T16:00:30;31.30;1.00
506;DHT22;551;48.524;9.056;2023-09-08T16:02:58;31.10;1.00
506;DHT22;551;48.524;9.056;2023-09-08T16:05:23;31.00;1.00
506;DHT22;551;48.524;9.056;2023-09-08T16:07:49;31.00;1.00
506;DHT22;551;48.524;9.056;2023-09-08T16:10:14;30.90;1.00
506;DHT22;551;48.524;9.056;2023-09-08T16:12:42;30.80;1.00
506;DHT22;551;48.524;9.056;2023-09-08T16:15:08;30.80;1.00
506;DHT22;551;48.524;9.056;2023-09-08T16:17:34;30.70;1.00
506;DHT22;551;48.524;9.056;2023-09-08T16:19:59;30.70;1.00
506;DHT22;551;48.524;9.056;2023-09-08T16:22:25;30.60;1.00
506;DHT22;551;48.524;9.056;2023-09-08T16:24:51;30.50;1.00
506;DHT22;551;48.524;9.056;2023-09-08T16:27:16;30.40;1.00
506;DHT22;551;48.524;9.056;2023-09-08T16:29:43;30.30;1.00
506;DHT22;551;48.524;9.056;2023-09-08T16:32:11;30.30;1.00
506;DHT22;551;48.524;9.056;2023-09-08T16:34:36;30.20;1.00
506;DHT22;551;48.524;9.056;2023-09-08T16:37:02;30.20;1.00
506;DHT22;551;48.524;9.056;2023-09-08T16:39:28;30.00;1.00
506;DHT22;551;48.524;9.056;2023-09-08T16:41:54;30.00;1.00
506;DHT22;551;48.524;9.056;2023-09-08T16:44:19;29.90;1.00
506;DHT22;551;48.524;9.056;2023-09-08T16:46:44;29.90;1.00
506;DHT22;551;48.524;9.056;2023-09-08T16:49:10;29.70;1.00
506;DHT22;551;48.524;9.056;2023-09-08T16:51:35;29.60;1.00
506;DHT22;551;48.524;9.056;2023-09-08T16:54:01;29.60;1.00
506;DHT22;551;48.524;9.056;2023-09-08T16:56:27;29.50;1.00
506;DHT22;551;48.524;9.056;2023-09-08T16:58:52;29.40;1.00
506;DHT22;551;48.524;9.056;2023-09-08T17:01:18;29.30;1.00